Time;durP1;ratioP1;P1;durP2;ratioP2;P2;SDS_P1;SDS_P2;PMS_P1;PMS_P2;Temp;Humidity;BMP_temperature;BMP_pressure;BME280_temperature;BME280_humidity;BME280_pressure;Samples;Min_cycle;Max_cycle;Signal;HPM_P1;HPM_P2
2023/04/27 00:01:16;;;;;;;139.48;78.93;;;;;;;16.55;42.84;93383.16;4910553;29;20087;-90
2023/04/27 00:03:42;;;;;;;126.10;69.00;;;;;;;16.57;42.84;93372.47;4893963;29;20044;-91
2023/04/27 00:06:08;;;;;;;138.25;73.32;;;;;;;16.59;42.75;93366.53;4877652;29;20051;-91
2023/04/27 00:08:33;;;;;;;138.98;71.00;;;;;;;16.60;42.79;93370.75;4878472;29;20460;-91
2023/04/27 00:10:59;;;;;;;134.38;74.00;;;;;;;16.60;42.41;93365.28;4877576;29;20075;-89
2023/04/27 00:13:24;;;;;;;119.53;72.30;;;;;;;16.56;42.59;93373.72;4877281;29;20067;-91
2023/04/27 00:15:50;;;;;;;118.47;68.07;;;;;;;16.55;42.85;93364.03;4901312;29;20039;-91
2023/04/27 00:18:15;;;;;;;130.95;71.22;;;;;;;16.55;43.07;93357.84;4895954;29;20055;-90
2023/04/27 00:20:41;;;;;;;129.95;70.45;;;;;;;16.53;42.46;93363.81;4896489;29;20082;-92
2023/04/27 00:23:07;;;;;;;131.32;69.85;;;;;;;16.52;42.88;93364.28;4939083;29;20051;-91
2023/04/27 00:25:32;;;;;;;127.32;66.70;;;;;;;16.54;43.12;93359.09;4910779;29;20384;-91
2023/04/27 00:27:57;;;;;;;112.50;65.47;;;;;;;16.53;42.63;93357.59;4902530;29;20048;-91
2023/04/27 00:30:23;;;;;;;122.88;66.90;;;;;;;16.58;42.91;93354.88;4897643;29;20530;-91
2023/04/27 00:32:48;;;;;;;108.70;61.72;;;;;;;16.56;42.98;93357.34;4912909;29;20047;-90
2023/04/27 00:35:14;;;;;;;109.70;60.85;;;;;;;16.55;42.95;93357.84;4928681;29;20044;-91
2023/04/27 00:37:39;;;;;;;124.63;64.22;;;;;;;16.52;42.81;93362.31;4905447;29;20052;-92
2023/04/27 00:40:06;;;;;;;115.85;64.28;;;;;;;16.55;42.99;93350.41;4891566;29;20044;-91
2023/04/27 00:42:32;;;;;;;120.30;64.18;;;;;;;16.53;42.87;93349.41;4903127;29;20042;-91
2023/04/27 00:44:58;;;;;;;105.78;59.67;;;;;;;16.54;42.95;93353.63;4910205;29;20044;-92
2023/04/27 00:47:23;;;;;;;119.65;62.67;;;;;;;16.51;42.86;93349.16;4936207;28;20460;-90
2023/04/27 00:49:49;;;;;;;103.40;57.53;;;;;;;16.55;42.61;93352.38;4911198;29;20040;-91
2023/04/27 00:52:14;;;;;;;108.43;61.90;;;;;;;16.53;42.56;93355.63;4892507;29;20047;-92
2023/04/27 00:54:39;;;;;;;111.45;61.42;;;;;;;16.52;42.75;93356.84;4909956;29;20036;-91
2023/04/27 00:57:05;;;;;;;113.13;58.88;;;;;;;16.52;42.75;93348.66;4895156;28;20037;-90
2023/04/27 00:59:30;;;;;;;108.82;57.75;;;;;;;16.53;43.09;93347.44;4913550;29;20040;-90
2023/04/27 01:01:56;;;;;;;107.03;59.65;;;;;;;16.56;42.87;93349.16;4925859;29;20055;-91
2023/04/27 01:04:22;;;;;;;115.15;61.65;;;;;;;16.53;43.18;93352.88;4914187;28;20058;-90
2023/04/27 01:06:47;;;;;;;100.55;55.50;;;;;;;16.53;42.66;93352.88;4932436;29;20051;-90
2023/04/27 01:09:12;;;;;;;104.93;57.20;;;;;;;16.47;42.88;93360.34;4915638;28;20362;-91
2023/04/27 01:11:38;;;;;;;106.72;58.08;;;;;;;16.46;43.04;93345.19;4917052;29;20039;-91
2023/04/27 01:14:04;;;;;;;111.38;59.65;;;;;;;16.53;43.04;93346.69;4910952;29;20052;-90
2023/04/27 01:16:31;;;;;;;90.35;53.63;;;;;;;16.51;42.97;93338.25;4901528;29;20350;-90
2023/04/27 01:18:57;;;;;;;100.68;54.83;;;;;;;16.51;42.90;93344.44;4912972;29;20044;-91
2023/04/27 01:21:22;;;;;;;89.68;50.47;;;;;;;16.51;43.08;93347.19;4915617;29;20106;-91
2023/04/27 01:23:47;;;;;;;105.75;54.38;;;;;;;16.47;43.06;93354.88;4928749;29;20059;-90
2023/04/27 01:26:15;;;;;;;99.28;54.95;;;;;;;16.50;42.95;93355.88;4924474;29;20396;-89
2023/04/27 01:28:41;;;;;;;101.68;55.08;;;;;;;16.45;42.94;93354.66;4926680;29;20044;-89
2023/04/27 01:31:06;;;;;;;102.22;55.38;;;;;;;16.46;43.15;93353.38;4931644;29;20079;-91
2023/04/27 01:33:32;;;;;;;96.97;53.00;;;;;;;16.46;42.75;93342.47;4932054;29;20048;-90
2023/04/27 01:35:57;;;;;;;89.90;50.85;;;;;;;16.46;42.80;93345.19;4925116;29;20043;-91
2023/04/27 01:38:23;;;;;;;96.25;52.63;;;;;;;16.45;42.90;93352.66;4911689;29;20189;-91
2023/04/27 01:40:48;;;;;;;85.18;49.58;;;;;;;16.49;43.08;93354.38;4899903;29;20192;-91
2023/04/27 01:43:13;;;;;;;91.22;52.70;;;;;;;16.51;42.96;93355.38;4904116;29;20580;-90
2023/04/27 01:45:39;;;;;;;86.13;49.45;;;;;;;16.49;42.83;93357.09;4897853;29;20044;-90
2023/04/27 01:48:05;;;;;;;87.05;49.80;;;;;;;16.49;42.82;93355.13;4915957;29;20047;-91
2023/04/27 01:50:30;;;;;;;92.00;53.47;;;;;;;16.49;43.20;93354.38;4926980;29;20079;-90
2023/04/27 01:52:55;;;;;;;83.70;49.50;;;;;;;16.51;42.82;93349.91;4897943;29;20056;-92
2023/04/27 01:55:21;;;;;;;88.28;51.83;;;;;;;16.47;42.77;93363.06;4896325;29;20044;-92
2023/04/27 01:57:46;;;;;;;83.82;48.92;;;;;;;16.49;43.11;93360.56;4915467;29;20051;-91
2023/04/27 02:00:12;;;;;;;90.57;47.03;;;;;;;16.49;42.81;93366.03;4932761;28;20044;-90
2023/04/27 02:02:38;;;;;;;85.03;47.85;;;;;;;16.50;42.92;93369.50;4928236;29;20084;-90
2023/04/27 02:05:03;;;;;;;80.25;48.25;;;;;;;16.48;43.13;93374.72;4911945;29;20032;-90
2023/04/27 02:07:29;;;;;;;80.82;45.97;;;;;;;16.48;43.15;93374.72;4897870;29;20547;-90
2023/04/27 02:09:54;;;;;;;79.72;45.50;;;;;;;16.49;42.88;93368.75;4900331;29;20039;-90
2023/04/27 02:12:20;;;;;;;82.70;44.88;;;;;;;16.46;42.76;93367.03;4899739;29;20052;-91
2023/04/27 02:14:45;;;;;;;84.03;50.20;;;;;;;16.44;43.17;93375.00;4899604;29;20156;-92
2023/04/27 02:17:11;;;;;;;79.75;46.13;;;;;;;16.47;42.98;93368.50;4914143;29;20052;-90
2023/04/27 02:19:36;;;;;;;77.35;46.50;;;;;;;16.44;43.20;93375.00;4912439;29;20055;-91
2023/04/27 02:22:02;;;;;;;77.30;44.70;;;;;;;16.50;42.90;93377.69;4904838;29;20516;-91
2023/04/27 02:24:29;;;;;;;75.30;45.47;;;;;;;16.48;42.75;93369.25;4911896;29;20396;-91
2023/04/27 02:26:54;;;;;;;76.80;43.60;;;;;;;16.50;42.98;93372.97;4905760;29;20487;-90
2023/04/27 02:29:19;;;;;;;68.50;41.97;;;;;;;16.49;43.15;93373.47;4929372;29;20067;-91
2023/04/27 02:31:45;;;;;;;79.80;43.03;;;;;;;16.44;42.91;93377.72;4934166;29;20039;-91
2023/04/27 02:34:12;;;;;;;73.30;42.65;;;;;;;16.45;43.03;93371.75;4917500;29;20505;-90
2023/04/27 02:36:37;;;;;;;78.97;44.13;;;;;;;16.44;43.17;93381.19;4918074;29;20103;-90
2023/04/27 02:39:03;;;;;;;74.70;43.38;;;;;;;16.46;42.96;93370.50;4901465;29;20048;-90
2023/04/27 02:41:31;;;;;;;79.80;43.22;;;;;;;16.47;43.02;93371.25;4905200;29;20039;-90
2023/04/27 02:43:56;;;;;;;74.15;43.70;;;;;;;16.43;42.90;93371.53;4924013;29;20136;-91
2023/04/27 02:46:22;;;;;;;76.22;43.22;;;;;;;16.43;43.01;93376.97;4911073;29;20101;-90
2023/04/27 02:48:47;;;;;;;73.18;43.70;;;;;;;16.45;43.13;93366.28;4912085;29;20068;-90
2023/04/27 02:51:13;;;;;;;69.45;41.90;;;;;;;16.46;43.13;93370.50;4886809;29;20498;-90
2023/04/27 02:53:38;;;;;;;69.30;38.90;;;;;;;16.46;42.96;93370.50;4913426;29;20284;-91
2023/04/27 02:56:04;;;;;;;73.60;39.50;;;;;;;16.47;42.97;93371.25;4914821;29;20040;-90
2023/04/27 02:58:30;;;;;;;70.30;40.22;;;;;;;16.45;42.58;93362.84;4912164;29;20045;-90
2023/04/27 03:00:56;;;;;;;70.47;41.45;;;;;;;16.45;43.10;93369.00;4911385;29;20036;-91
2023/04/27 03:03:22;;;;;;;68.50;38.72;;;;;;;16.44;42.78;93364.81;4914282;29;20467;-91
2023/04/27 03:05:47;;;;;;;62.40;37.78;;;;;;;16.45;43.24;93366.28;4914723;29;20059;-91
2023/04/27 03:08:13;;;;;;;77.80;40.35;;;;;;;16.41;43.03;93367.81;4929491;29;20039;-91
2023/04/27 03:10:38;;;;;;;67.28;37.60;;;;;;;16.42;42.80;93361.84;4898718;29;20039;-91
2023/04/27 03:13:03;;;;;;;67.65;38.72;;;;;;;16.41;43.21;93365.06;4900776;29;20051;-90
2023/04/27 03:15:29;;;;;;;64.47;37.30;;;;;;;16.43;43.03;93365.31;4908758;29;20482;-92
2023/04/27 03:17:54;;;;;;;62.78;38.05;;;;;;;16.44;43.14;93366.81;4899433;29;20048;-92
2023/04/27 03:20:20;;;;;;;60.97;35.25;;;;;;;16.47;43.24;93363.06;4914104;29;20051;-90
2023/04/27 03:22:46;;;;;;;64.05;37.75;;;;;;;16.43;43.03;93363.34;4895775;29;20044;-89
2023/04/27 03:25:11;;;;;;;60.10;35.72;;;;;;;16.46;43.07;93367.03;4926364;29;20059;-91
2023/04/27 03:27:37;;;;;;;67.82;37.88;;;;;;;16.38;43.01;93369.53;4907557;29;20495;-91
2023/04/27 03:30:03;;;;;;;52.58;33.38;;;;;;;16.42;43.02;93366.56;4915290;29;20466;-90
2023/04/27 03:32:28;;;;;;;62.35;35.30;;;;;;;16.41;43.32;93365.06;4933411;29;20043;-91
2023/04/27 03:34:55;;;;;;;60.42;34.28;;;;;;;16.45;42.92;93362.84;4933073;29;20120;-91
2023/04/27 03:37:20;;;;;;;70.68;37.78;;;;;;;16.29;43.31;93353.41;4919414;29;20038;-91
2023/04/27 03:39:47;;;;;;;59.30;35.65;;;;;;;16.36;43.49;93363.84;4900153;29;20047;-90
2023/04/27 03:42:12;;;;;;;85.80;46.80;;;;;;;16.45;44.05;93365.56;4920735;29;20102;-90
2023/04/27 03:44:38;;;;;;;69.53;37.22;;;;;;;16.54;43.58;93370.75;4895271;29;20039;-91
2023/04/27 03:47:07;;;;;;;65.00;38.35;;;;;;;16.50;43.03;93366.78;4909918;29;20071;-89
2023/04/27 03:49:35;;;;;;;58.35;34.53;;;;;;;16.42;43.31;93366.56;4919606;29;20050;-89
2023/04/27 03:52:01;;;;;;;67.10;33.25;;;;;;;16.45;43.32;93363.56;4908171;29;20053;-88
2023/04/27 03:54:26;;;;;;;62.30;35.47;;;;;;;16.34;43.64;93376.47;4899395;29;20074;-88
2023/04/27 03:56:52;;;;;;;57.67;31.67;;;;;;;16.25;42.31;93368.53;4920019;28;20035;-87
2023/04/27 03:59:17;;;;;;;61.45;31.77;;;;;;;16.16;41.39;93371.53;4905182;29;20127;-88
2023/04/27 04:01:43;;;;;;;54.40;27.95;;;;;;;16.14;41.32;93382.94;4907669;29;20039;-86
2023/04/27 04:04:08;;;;;;;67.70;31.45;;;;;;;16.21;40.75;93387.16;4910458;29;20126;-88
2023/04/27 04:06:33;;;;;;;79.50;33.75;;;;;;;16.24;41.01;93389.63;4895849;29;20043;-88
2023/04/27 04:08:59;;;;;;;78.07;35.92;;;;;;;16.23;40.99;93388.16;4912760;29;20048;-87
2023/04/27 04:11:26;;;;;;;119.55;40.60;;;;;;;16.26;41.35;93392.59;4927428;29;20055;-88
2023/04/27 04:13:51;;;;;;;118.05;50.38;;;;;;;16.32;42.08;93392.59;4929852;29;20052;-88
2023/04/27 04:16:17;;;;;;;109.05;46.83;;;;;;;16.21;42.77;93390.63;4912257;29;20044;-86
2023/04/27 04:18:42;;;;;;;98.45;44.13;;;;;;;16.27;42.46;93391.34;4923345;29;20055;-85
2023/04/27 04:21:08;;;;;;;114.03;44.67;;;;;;;16.24;41.97;93397.09;4910511;29;20036;-84
2023/04/27 04:23:34;;;;;;;92.90;34.95;;;;;;;16.23;40.38;93390.16;4912312;29;20044;-90
2023/04/27 04:26:00;;;;;;;64.53;28.73;;;;;;;16.26;39.34;93398.06;4893619;29;20051;-86
2023/04/27 04:28:26;;;;;;;42.20;14.27;;;;;;;16.08;37.06;93399.31;4897910;29;20043;-89
2023/04/27 04:30:51;;;;;;;48.13;19.88;;;;;;;15.97;37.38;93399.31;4907283;29;20040;-92
2023/04/27 04:33:17;;;;;;;50.78;16.33;;;;;;;16.05;37.40;93399.53;4913415;29;20082;-88
2023/04/27 04:35:42;;;;;;;62.60;16.60;;;;;;;16.13;37.54;93406.00;4897322;29;20323;-87
2023/04/27 04:38:09;;;;;;;92.75;25.92;;;;;;;16.09;38.06;93408.22;4914806;29;20819;-90
2023/04/27 04:40:35;;;;;;;67.85;22.27;;;;;;;16.02;38.35;93412.19;4900111;29;20705;-88
2023/04/27 04:43:00;;;;;;;95.70;27.70;;;;;;;16.15;38.20;93413.69;4899981;29;20066;-88
2023/04/27 04:45:26;;;;;;;86.65;29.60;;;;;;;16.19;39.06;93414.94;4913521;29;20036;-89
2023/04/27 04:47:53;;;;;;;84.97;28.77;;;;;;;16.24;39.08;93418.91;4922291;29;20111;-88
2023/04/27 04:50:19;;;;;;;93.20;33.58;;;;;;;16.14;39.59;93412.94;4908772;29;20094;-88
2023/04/27 04:52:44;;;;;;;102.82;39.75;;;;;;;16.18;39.59;93412.69;4927881;29;20043;-89
2023/04/27 04:55:10;;;;;;;86.50;40.83;;;;;;;16.23;40.29;93422.88;4930261;29;20434;-88
2023/04/27 04:57:36;;;;;;;86.13;36.42;;;;;;;16.25;40.76;93423.09;4915006;29;20059;-86
2023/04/27 05:00:01;;;;;;;77.30;35.50;;;;;;;16.24;41.54;93427.81;4910128;29;20052;-86
2023/04/27 05:02:27;;;;;;;91.82;39.25;;;;;;;16.21;41.31;93419.91;4911767;29;20503;-87
2023/04/27 05:04:52;;;;;;;99.88;36.47;;;;;;;16.31;41.17;93429.31;4887970;29;20054;-90
2023/04/27 05:07:17;;;;;;;135.10;43.75;;;;;;;16.24;41.36;93421.63;4900030;29;20540;-89
2023/04/27 05:09:43;;;;;;;87.50;39.47;;;;;;;16.28;41.35;93424.84;4917540;29;20035;-89
2023/04/27 05:12:09;;;;;;;85.22;38.90;;;;;;;16.32;41.51;93423.34;4917433;29;20457;-87
2023/04/27 05:14:35;;;;;;;100.55;47.20;;;;;;;16.21;41.31;93437.00;4923817;29;20044;-88
2023/04/27 05:17:01;;;;;;;100.55;41.40;;;;;;;16.29;41.47;93435.25;4912027;29;20044;-88
2023/04/27 05:19:30;;;;;;;103.78;43.55;;;;;;;16.23;41.23;93441.97;4915713;29;20511;-88
2023/04/27 05:21:58;;;;;;;97.57;45.38;;;;;;;16.23;41.51;93436.50;4908142;29;20039;-89
2023/04/27 05:24:25;;;;;;;95.57;41.42;;;;;;;16.25;41.46;93439.47;4925349;29;20040;-89
2023/04/27 05:26:50;;;;;;;107.85;44.35;;;;;;;16.33;41.51;93438.47;4917016;29;20055;-89
2023/04/27 05:29:16;;;;;;;141.30;50.80;;;;;;;16.36;41.86;93436.75;4904809;29;20040;-87
2023/04/27 05:31:42;;;;;;;155.40;54.17;;;;;;;16.23;41.55;93450.91;4913435;29;20119;-86
2023/04/27 05:34:08;;;;;;;224.20;77.78;;;;;;;16.40;41.47;93448.91;4933173;29;20051;-88
2023/04/27 05:36:34;;;;;;;154.43;57.88;;;;;;;16.36;41.35;93450.38;4916137;29;20066;-87
2023/04/27 05:39:00;;;;;;;127.50;50.30;;;;;;;16.32;41.81;93449.88;4898149;29;20055;-86
2023/04/27 05:41:26;;;;;;;126.18;56.25;;;;;;;16.33;41.82;93449.41;4907981;29;20039;-88
2023/04/27 05:43:52;;;;;;;137.95;57.95;;;;;;;16.42;41.46;93451.13;4902593;29;20044;-87
2023/04/27 05:46:17;;;;;;;115.95;50.13;;;;;;;16.33;41.85;93463.03;4934633;29;20050;-88
2023/04/27 05:48:43;;;;;;;113.28;51.17;;;;;;;16.39;41.87;93454.84;4921008;29;20379;-87
2023/04/27 05:51:08;;;;;;;139.88;67.90;;;;;;;16.44;41.57;93452.13;4901691;29;20055;-88
2023/04/27 05:53:34;;;;;;;157.27;63.78;;;;;;;16.46;41.47;93457.81;4906138;29;20044;-88
2023/04/27 05:56:00;;;;;;;157.82;78.50;;;;;;;16.40;41.79;93453.63;4907646;29;20052;-87
2023/04/27 05:58:27;;;;;;;218.35;105.18;;;;;;;16.42;42.00;93453.88;4925482;29;20054;-88
2023/04/27 06:00:53;;;;;;;177.38;86.55;;;;;;;16.40;41.95;93448.91;4922430;29;20399;-87
2023/04/27 06:03:18;;;;;;;221.25;96.80;;;;;;;16.48;41.75;93448.38;4910791;28;20044;-88
2023/04/27 06:05:44;;;;;;;221.05;108.50;;;;;;;16.54;41.80;93451.88;4895983;29;20044;-86
2023/04/27 06:08:10;;;;;;;189.73;94.30;;;;;;;16.58;41.69;93450.38;4913299;29;20519;-86
2023/04/27 06:10:35;;;;;;;194.20;99.68;;;;;;;16.53;41.87;93455.84;4895000;29;20059;-86
2023/04/27 06:13:01;;;;;;;189.55;97.53;;;;;;;16.56;41.88;93452.84;4907228;29;20054;-85
2023/04/27 06:15:27;;;;;;;197.10;106.13;;;;;;;16.44;41.83;93457.59;4893652;29;20083;-86
2023/04/27 06:17:52;;;;;;;194.55;102.53;;;;;;;16.47;42.23;93458.56;4902296;29;20103;-87
2023/04/27 06:20:18;;;;;;;205.70;104.97;;;;;;;16.55;41.67;93456.09;4912409;29;20063;-85
2023/04/27 06:22:45;;;;;;;212.15;110.88;;;;;;;16.43;42.22;93464.28;4911789;29;20062;-86
2023/04/27 06:25:11;;;;;;;228.18;119.72;;;;;;;16.50;41.86;93457.56;4913130;28;20483;-88
2023/04/27 06:27:36;;;;;;;204.65;108.57;;;;;;;16.54;42.07;93465.50;4914431;29;20051;-87
2023/04/27 06:30:02;;;;;;;211.18;111.57;;;;;;;16.52;41.93;93466.00;4900174;29;20039;-89
2023/04/27 06:32:27;;;;;;;208.00;113.20;;;;;;;16.49;41.98;93468.97;4927162;29;20043;-88
2023/04/27 06:34:53;;;;;;;200.23;103.75;;;;;;;16.58;41.64;93468.75;4893447;29;20046;-86
2023/04/27 06:37:18;;;;;;;191.68;97.85;;;;;;;16.51;41.73;93461.78;4893888;29;20040;-86
2023/04/27 06:39:44;;;;;;;174.00;93.13;;;;;;;16.57;41.71;93467.25;4906590;29;20065;-87
2023/04/27 06:42:09;;;;;;;191.65;96.53;;;;;;;16.49;41.87;93469.72;4901423;29;20047;-87
2023/04/27 06:44:35;;;;;;;201.20;102.43;;;;;;;16.47;42.12;93466.75;4911931;29;20040;-87
2023/04/27 06:47:01;;;;;;;178.82;95.22;;;;;;;16.55;41.91;93469.72;4913520;29;20048;-87
2023/04/27 06:49:26;;;;;;;191.98;95.65;;;;;;;16.55;41.98;93473.19;4912773;29;20048;-86
2023/04/27 06:51:52;;;;;;;176.35;91.63;;;;;;;16.46;42.23;93467.97;4909238;29;20031;-89
2023/04/27 06:54:17;;;;;;;183.88;93.80;;;;;;;16.52;42.01;93476.19;4902861;29;20051;-91
2023/04/27 06:56:43;;;;;;;199.52;104.47;;;;;;;16.62;41.83;93461.78;4916942;29;20118;-87
2023/04/27 06:59:09;;;;;;;213.73;101.65;;;;;;;16.58;42.09;93461.28;4899357;29;20515;-87
2023/04/27 07:01:34;;;;;;;241.80;120.45;;;;;;;16.68;41.81;93461.78;4916227;29;20063;-87
2023/04/27 07:04:00;;;;;;;201.15;101.85;;;;;;;16.62;42.03;93466.50;4897228;29;21594;-87
2023/04/27 07:06:27;;;;;;;219.77;106.10;;;;;;;16.58;42.25;93466.75;4903212;29;20427;-87
2023/04/27 07:08:53;;;;;;;193.32;94.97;;;;;;;16.58;41.99;93466.00;4925296;29;20043;-87
2023/04/27 07:11:18;;;;;;;208.93;102.65;;;;;;;16.49;42.39;93467.00;4905316;29;20032;-88
2023/04/27 07:13:43;;;;;;;157.50;80.90;;;;;;;16.50;41.62;93468.47;4929822;29;20039;-87
2023/04/27 07:16:09;;;;;;;109.68;52.17;;;;;;;16.49;39.85;93466.25;4919887;29;20462;-88
2023/04/27 07:18:34;;;;;;;82.85;39.53;;;;;;;16.39;39.66;93474.69;4937273;28;20345;-87
2023/04/27 07:21:00;;;;;;;82.20;35.97;;;;;;;16.42;39.52;93473.72;4902508;29;20296;-86
2023/04/27 07:23:25;;;;;;;91.20;36.75;;;;;;;16.43;39.25;93472.47;4914304;29;20039;-86
2023/04/27 07:25:51;;;;;;;106.78;37.58;;;;;;;16.44;39.54;93473.97;4928071;29;20050;-87
2023/04/27 07:28:17;;;;;;;114.43;45.33;;;;;;;16.47;40.03;93477.66;4920048;29;20391;-87
2023/04/27 07:30:42;;;;;;;142.85;54.08;;;;;;;16.60;40.67;93477.91;4929854;29;20110;-89
2023/04/27 07:33:08;;;;;;;191.20;56.53;;;;;;;16.53;40.54;93472.94;4906821;29;20048;-88
2023/04/27 07:35:34;;;;;;;161.68;53.80;;;;;;;16.54;40.95;93468.97;4921755;29;20044;-88
2023/04/27 07:38:01;;;;;;;172.88;58.08;;;;;;;16.54;41.29;93468.25;4930544;29;20051;-89
2023/04/27 07:40:27;;;;;;;159.20;62.67;;;;;;;16.58;40.92;93479.66;4904535;29;20052;-86
2023/04/27 07:42:53;;;;;;;143.00;59.40;;;;;;;16.63;41.43;93484.38;4913516;29;20118;-87
2023/04/27 07:45:27;;;;;;;126.97;58.78;;;;;;;16.59;41.45;93483.88;4915272;29;20074;-88
2023/04/27 07:47:52;;;;;;;150.25;57.47;;;;;;;16.70;41.12;93483.88;4912832;29;20046;-88
2023/04/27 07:50:23;;;;;;;124.97;58.35;;;;;;;16.66;41.54;93484.16;4915910;29;20039;-87
2023/04/27 07:52:49;;;;;;;122.20;55.10;;;;;;;16.72;41.42;93490.34;4902515;29;20050;-89
2023/04/27 07:55:15;;;;;;;140.90;61.50;;;;;;;16.59;41.66;93489.34;4898343;29;20071;-89
2023/04/27 07:57:40;;;;;;;168.50;52.17;;;;;;;16.57;40.58;93478.91;4900866;29;20175;-88
2023/04/27 08:00:10;;;;;;;99.20;33.38;;;;;;;16.64;39.73;93492.09;4911913;28;20081;-89
2023/04/27 08:02:56;;;;;;;79.40;34.80;;;;;;;16.56;38.42;93487.59;4912773;29;20063;-93
2023/04/27 08:05:22;;;;;;;102.65;32.40;;;;;;;16.49;37.03;93493.53;4900762;28;20079;-89
2023/04/27 08:07:47;;;;;;;76.68;23.35;;;;;;;16.41;36.96;93487.84;4918500;29;20027;-87
2023/04/27 08:10:14;;;;;;;61.17;15.88;;;;;;;16.46;37.26;93487.81;4943031;28;20074;-89
2023/04/27 08:12:40;;;;;;;32.40;12.60;;;;;;;16.36;36.31;93500.25;4944830;29;20083;-92
2023/04/27 08:15:06;;;;;;;50.35;16.67;;;;;;;16.37;36.49;93506.44;4920111;29;20364;-90
2023/04/27 08:17:31;;;;;;;38.08;14.20;;;;;;;16.34;36.11;93507.44;4897618;29;21127;-91
2023/04/27 08:19:58;;;;;;;51.20;12.88;;;;;;;16.31;36.54;93505.69;4915654;29;20133;-90
2023/04/27 08:22:23;;;;;;;47.20;13.48;;;;;;;16.24;35.99;93508.91;4938131;29;20050;-90
2023/04/27 08:24:49;;;;;;;43.67;13.80;;;;;;;16.30;36.46;93510.41;4906336;29;20059;-89
2023/04/27 08:27:15;;;;;;;39.28;13.60;;;;;;;16.35;36.35;93506.19;4891633;29;20066;-90
2023/04/27 08:29:47;;;;;;;45.50;15.20;;;;;;;16.39;37.11;93509.41;4924880;29;20043;-90
2023/04/27 08:32:12;;;;;;;59.45;16.98;;;;;;;16.33;36.61;93509.41;4903596;29;20048;-91
2023/04/27 08:34:38;;;;;;;38.38;15.23;;;;;;;16.51;37.43;93505.44;4898039;29;20614;-91
2023/04/27 08:37:03;;;;;;;50.63;18.55;;;;;;;16.48;37.40;93513.88;4917172;29;20432;-89
2023/04/27 08:39:29;;;;;;;52.10;20.80;;;;;;;16.57;38.08;93500.75;4885809;29;20048;-90
2023/04/27 08:41:56;;;;;;;73.07;26.85;;;;;;;16.58;38.20;93504.22;4884572;29;20063;-92
2023/04/27 08:44:21;;;;;;;79.13;31.23;;;;;;;16.53;38.80;93502.97;4919811;23;20059;-93
2023/04/27 08:46:47;;;;;;;85.93;33.58;;;;;;;16.51;38.79;93504.69;4897457;29;20111;-91
2023/04/27 08:49:13;;;;;;;148.63;42.08;;;;;;;16.61;38.69;93506.69;4917785;29;20036;-90
2023/04/27 08:51:41;;;;;;;96.88;37.47;;;;;;;16.67;39.32;93512.19;4918676;29;20066;-91
2023/04/27 08:54:06;;;;;;;80.97;37.65;;;;;;;16.64;39.20;93511.19;4914990;29;20058;-89
2023/04/27 08:56:32;;;;;;;112.38;41.20;;;;;;;16.58;39.70;93507.69;4915575;29;20540;-88
2023/04/27 08:58:58;;;;;;;103.18;41.72;;;;;;;16.65;39.54;93514.66;4940627;29;20035;-92
2023/04/27 09:01:24;;;;;;;100.63;45.08;;;;;;;16.60;39.50;93518.13;4916604;29;20048;-92
2023/04/27 09:03:59;;;;;;;101.88;38.67;;;;;;;16.65;39.94;93522.84;4906243;29;20079;-92
2023/04/27 09:06:43;;;;;;;91.10;39.00;;;;;;;16.66;39.68;93516.91;4888561;29;20068;-92
2023/04/27 09:09:27;;;;;;;95.95;43.00;;;;;;;16.63;39.67;93515.16;4899288;29;20050;-92
2023/04/27 09:11:52;;;;;;;95.45;41.83;;;;;;;16.65;39.38;93509.97;4911647;29;20044;-95
2023/04/27 09:14:20;;;;;;;119.22;42.83;;;;;;;16.68;39.75;93514.41;4935301;29;20060;-94
2023/04/27 09:16:56;;;;;;;156.57;58.70;;;;;;;16.63;39.55;93509.72;4917929;29;20038;-93
2023/04/27 09:19:28;;;;;;;108.20;39.67;;;;;;;16.72;39.18;93508.69;4923277;29;20062;-93
2023/04/27 09:22:07;;;;;;;83.55;27.65;;;;;;;16.71;38.19;93507.94;4901214;29;20119;-91
2023/04/27 09:24:33;;;;;;;131.05;31.42;;;;;;;16.59;37.56;93502.97;4893347;28;20050;-93
2023/04/27 09:27:01;;;;;;;84.00;26.63;;;;;;;16.55;37.31;93503.22;4910190;29;20043;-90
2023/04/27 09:29:34;;;;;;;87.63;25.63;;;;;;;16.59;37.87;93492.81;4891213;29;20032;-89
2023/04/27 09:32:00;;;;;;;81.70;27.55;;;;;;;16.65;38.19;93496.31;4920723;29;20039;-93
2023/04/27 09:34:25;;;;;;;77.70;28.25;;;;;;;16.70;38.00;93494.81;4893209;29;20047;-89
2023/04/27 09:36:57;;;;;;;91.07;33.80;;;;;;;16.63;38.32;93495.28;4928640;29;20463;-90
2023/04/27 09:39:22;;;;;;;114.82;39.42;;;;;;;16.60;38.61;93490.81;4907126;29;20664;-92
2023/04/27 09:41:48;;;;;;;102.40;38.40;;;;;;;16.65;39.11;93492.84;4903703;29;20040;-91
2023/04/27 09:44:13;;;;;;;123.18;45.22;;;;;;;16.60;39.10;93491.56;4917352;29;20059;-91
2023/04/27 09:46:38;;;;;;;134.07;44.17;;;;;;;16.64;39.40;93494.81;4885689;29;20125;-91
2023/04/27 09:49:04;;;;;;;129.48;48.08;;;;;;;16.67;39.83;93490.34;4895264;29;20043;-90
2023/04/27 09:51:30;;;;;;;87.43;32.50;;;;;;;16.77;38.42;93499.75;4904935;29;20553;-92
2023/04/27 09:53:57;;;;;;;85.07;26.25;;;;;;;16.70;37.36;93492.06;4903729;29;20076;-90
2023/04/27 09:56:36;;;;;;;52.53;20.00;;;;;;;16.61;37.14;93495.03;4909481;29;20071;-90
2023/04/27 09:59:39;;;;;;;74.00;20.67;;;;;;;16.66;37.33;93491.59;4935378;28;20158;-91
2023/04/27 10:02:06;;;;;;;241.48;35.67;;;;;;;16.68;37.31;93487.09;4899960;29;20102;-90
2023/04/27 10:05:09;;;;;;;135.68;28.35;;;;;;;16.61;37.70;93503.22;4901857;29;20043;-90
2023/04/27 10:07:34;;;;;;;82.57;24.08;;;;;;;16.64;37.27;93497.56;4930588;29;20052;-90
2023/04/27 10:10:01;;;;;;;72.78;21.80;;;;;;;16.66;37.88;93491.59;4879595;29;20096;-90
2023/04/27 10:12:27;;;;;;;69.38;26.08;;;;;;;16.70;38.66;93486.59;4901869;29;20043;-90
2023/04/27 10:14:56;;;;;;;66.60;27.38;;;;;;;16.73;38.97;93489.09;4893695;29;20431;-90
2023/04/27 10:17:28;;;;;;;50.88;24.60;;;;;;;16.66;39.10;93489.63;4917686;29;20066;-90
2023/04/27 10:20:01;;;;;;;50.45;24.98;;;;;;;16.66;38.75;93488.88;4913317;29;20119;-91
2023/04/27 10:22:46;;;;;;;53.35;25.33;;;;;;;16.71;39.01;93491.56;4917617;29;20036;-89
2023/04/27 10:25:35;;;;;;;43.90;23.10;;;;;;;16.68;39.45;93491.81;4920969;29;20128;-91
2023/04/27 10:28:01;;;;;;;99.25;30.85;;;;;;;16.72;39.04;93495.78;4903722;29;20045;-90
2023/04/27 10:30:34;;;;;;;78.45;29.40;;;;;;;16.70;39.11;93486.59;4907230;29;20539;-89
2023/04/27 10:33:04;;;;;;;66.80;29.00;;;;;;;16.70;39.68;93489.34;4900957;29;20044;-90
2023/04/27 10:35:34;;;;;;;68.00;29.55;;;;;;;16.73;39.50;93491.06;4909704;29;20107;-90
2023/04/27 10:38:14;;;;;;;58.65;28.52;;;;;;;16.77;39.63;93488.84;4907245;29;20050;-89
2023/04/27 10:40:39;;;;;;;58.83;29.27;;;;;;;16.84;39.86;93487.59;4944202;29;20044;-89
2023/04/27 10:43:13;;;;;;;60.60;27.15;;;;;;;16.78;39.62;93493.06;4922854;29;20094;-90
2023/04/27 10:45:39;;;;;;;87.72;44.58;;;;;;;16.77;39.81;93475.94;4908071;29;20549;-89
2023/04/27 10:48:05;;;;;;;63.95;28.90;;;;;;;16.81;40.32;93477.69;4911306;29;20071;-91
2023/04/27 10:50:30;;;;;;;70.13;32.08;;;;;;;16.75;40.08;93483.13;4905229;29;20223;-89
2023/04/27 10:53:03;;;;;;;116.30;32.10;;;;;;;16.75;39.87;93489.34;4897324;29;20047;-87
2023/04/27 10:55:30;;;;;;;162.82;42.63;;;;;;;16.82;39.87;93490.09;4928708;29;20040;-87
2023/04/27 10:57:55;;;;;;;191.90;57.10;;;;;;;16.82;40.05;93484.63;4888871;29;20062;-87
2023/04/27 11:00:27;;;;;;;120.57;41.03;;;;;;;16.78;39.69;93482.88;4920586;29;20490;-91
2023/04/27 11:02:53;;;;;;;114.30;36.50;;;;;;;16.91;40.53;93465.97;4943645;28;20406;-92
2023/04/27 11:05:23;;;;;;;95.18;34.80;;;;;;;16.80;39.95;93476.94;4908168;29;20047;-90
2023/04/27 11:07:50;;;;;;;98.00;39.15;;;;;;;16.89;40.56;93475.94;4911536;29;20039;-90
2023/04/27 11:10:16;;;;;;;115.82;40.78;;;;;;;16.81;40.34;93475.69;4913299;29;20035;-91